createdAt,value
2017-12-14T00:00:23.538Z,7.30
2017-12-14T00:02:52.538Z,7.52
2017-12-14T00:05:21.118Z,7.52
2017-12-14T00:07:49.910Z,7.43
2017-12-14T00:10:19.007Z,7.26
2017-12-14T00:12:47.689Z,7.23
2017-12-14T00:15:16.489Z,7.40
2017-12-14T00:17:45.169Z,7.54
2017-12-14T00:20:13.807Z,7.50
2017-12-14T00:22:43.143Z,7.65
2017-12-14T00:25:11.325Z,7.77
2017-12-14T00:27:39.986Z,7.65
2017-12-14T00:30:08.696Z,7.48
2017-12-14T00:32:37.591Z,7.39
2017-12-14T00:35:06.158Z,7.60
2017-12-14T00:37:34.863Z,7.37
2017-12-14T00:40:03.536Z,7.39
2017-12-14T00:42:32.235Z,7.66
2017-12-14T00:45:00.856Z,7.69
2017-12-14T00:47:30.418Z,7.59
2017-12-14T00:49:59.156Z,7.40
2017-12-14T00:52:28.638Z,7.06
2017-12-14T00:54:57.662Z,7.03
2017-12-14T00:57:26.391Z,6.99
2017-12-14T00:59:55.047Z,7.11
2017-12-14T01:02:24.034Z,7.09
2017-12-14T01:04:52.758Z,7.09
2017-12-14T01:07:21.442Z,7.07
2017-12-14T01:09:50.335Z,6.92
2017-12-14T01:12:19.081Z,6.98
2017-12-14T01:14:47.707Z,6.92
2017-12-14T01:17:16.641Z,6.74
2017-12-14T01:19:46.100Z,6.61
2017-12-14T01:22:14.752Z,6.51
2017-12-14T01:24:43.472Z,6.35
2017-12-14T01:27:12.113Z,6.67
2017-12-14T01:29:40.844Z,6.48
2017-12-14T01:32:09.637Z,6.39
2017-12-14T01:34:38.325Z,6.13
2017-12-14T01:37:07.000Z,5.99
2017-12-14T01:39:35.894Z,5.96
2017-12-14T01:42:04.546Z,5.97
2017-12-14T01:44:33.109Z,5.94
2017-12-14T01:47:02.830Z,5.94
2017-12-14T01:49:31.558Z,5.80
2017-12-14T01:52:00.216Z,5.84
2017-12-14T01:54:28.981Z,5.83
2017-12-14T01:57:00.788Z,5.78
2017-12-14T01:59:29.582Z,5.89
2017-12-14T02:01:58.268Z,5.79
2017-12-14T02:04:26.905Z,5.80
2017-12-14T02:06:56.352Z,5.89
2017-12-14T02:09:24.992Z,5.90
2017-12-14T02:11:53.724Z,5.85
2017-12-14T02:14:22.412Z,5.80
2017-12-14T02:16:51.096Z,5.81
2017-12-14T02:19:19.891Z,5.81
2017-12-14T02:21:48.974Z,5.79
2017-12-14T02:24:17.769Z,5.71
2017-12-14T02:26:46.454Z,5.55
2017-12-14T02:29:15.349Z,5.49
2017-12-14T02:31:44.002Z,5.40
2017-12-14T02:34:12.721Z,5.33
2017-12-14T02:36:41.604Z,5.21
2017-12-14T02:39:10.205Z,5.29
2017-12-14T02:41:38.893Z,5.29
2017-12-14T02:44:07.673Z,5.25
2017-12-14T02:46:36.304Z,5.19
2017-12-14T02:49:05.757Z,5.09
2017-12-14T02:51:34.638Z,5.04
2017-12-14T02:54:03.336Z,5.14
2017-12-14T02:56:31.983Z,5.10
2017-12-14T02:59:01.015Z,4.88
2017-12-14T03:01:29.661Z,4.68
2017-12-14T03:03:58.329Z,4.51
2017-12-14T03:06:27.787Z,4.46
2017-12-14T03:08:56.571Z,4.52
2017-12-14T03:11:25.308Z,4.60
2017-12-14T03:13:54.829Z,4.70
2017-12-14T03:16:23.548Z,4.72
2017-12-14T03:18:52.236Z,4.74
2017-12-14T03:21:20.919Z,4.81
2017-12-14T03:23:49.608Z,4.87
2017-12-14T03:26:18.293Z,4.96
2017-12-14T03:28:46.981Z,5.05
2017-12-14T03:31:15.674Z,5.13
2017-12-14T03:33:44.320Z,5.29
2017-12-14T03:36:13.288Z,5.23
2017-12-14T03:38:42.755Z,5.35
2017-12-14T03:41:11.370Z,5.37
2017-12-14T03:43:41.246Z,5.23
2017-12-14T03:46:09.885Z,5.20
2017-12-14T03:48:38.578Z,4.78
2017-12-14T03:51:07.609Z,4.35
2017-12-14T03:53:36.405Z,4.28
2017-12-14T03:56:04.984Z,4.06
2017-12-14T03:58:33.870Z,4.02
2017-12-14T04:01:02.562Z,3.94
2017-12-14T04:03:31.248Z,3.81
2017-12-14T04:06:00.202Z,3.64
2017-12-14T04:08:28.870Z,3.59
2017-12-14T04:10:58.335Z,3.40
2017-12-14T04:13:27.435Z,3.29
2017-12-14T04:15:56.104Z,3.24
2017-12-14T04:18:24.893Z,3.31
2017-12-14T04:20:53.634Z,3.28
2017-12-14T04:23:23.127Z,3.26
2017-12-14T04:25:52.591Z,3.62
2017-12-14T04:28:21.532Z,3.80
2017-12-14T04:30:50.380Z,3.91
2017-12-14T04:33:19.123Z,4.02
2017-12-14T04:35:47.949Z,3.96
2017-12-14T04:38:16.637Z,3.91
2017-12-14T04:40:45.323Z,3.82
2017-12-14T04:43:14.168Z,3.84
2017-12-14T04:45:43.666Z,3.93
2017-12-14T04:48:13.179Z,3.80
2017-12-14T04:50:41.919Z,3.92
2017-12-14T04:53:10.612Z,3.98
2017-12-14T04:55:39.281Z,4.05
2017-12-14T04:58:08.174Z,3.97
2017-12-14T05:00:36.959Z,3.98
2017-12-14T05:03:05.753Z,4.01
2017-12-14T05:05:34.844Z,3.84
2017-12-14T05:08:03.597Z,3.65
2017-12-14T05:10:32.314Z,3.48
2017-12-14T05:13:01.157Z,3.38
2017-12-14T05:15:30.624Z,3.28
2017-12-14T05:17:59.392Z,3.15
2017-12-14T05:20:28.290Z,3.25
2017-12-14T05:22:57.074Z,3.42
2017-12-14T05:25:25.820Z,3.43
2017-12-14T05:27:55.538Z,3.30
2017-12-14T05:30:24.303Z,3.24
2017-12-14T05:32:53.824Z,3.29
2017-12-14T05:35:22.516Z,3.30
2017-12-14T05:37:51.240Z,3.11
2017-12-14T05:40:19.974Z,3.03
2017-12-14T05:42:49.533Z,3.09
2017-12-14T05:45:18.328Z,3.13
2017-12-14T05:47:47.081Z,3.03
2017-12-14T05:50:15.800Z,3.06
2017-12-14T05:52:44.584Z,3.08
2017-12-14T05:55:13.379Z,3.09
2017-12-14T05:57:42.479Z,3.42
2017-12-14T06:00:11.255Z,3.37
2017-12-14T06:02:39.985Z,3.72
2017-12-14T06:05:09.508Z,3.71
2017-12-14T06:07:38.249Z,3.78
2017-12-14T06:10:07.765Z,3.81
2017-12-14T06:12:36.811Z,3.90
2017-12-14T06:15:05.493Z,3.84
2017-12-14T06:17:34.177Z,3.81
2017-12-14T06:20:04.961Z,3.86
2017-12-14T06:22:34.476Z,4.32
2017-12-14T06:25:03.308Z,4.54
2017-12-14T06:27:32.364Z,4.70
2017-12-14T06:30:01.083Z,4.63
2017-12-14T06:32:29.878Z,5.04
2017-12-14T06:34:58.663Z,5.48
2017-12-14T06:37:27.449Z,5.83
2017-12-14T06:39:56.243Z,6.08
2017-12-14T06:42:24.929Z,6.18
2017-12-14T06:44:53.715Z,6.51
2017-12-14T06:47:22.500Z,6.75
2017-12-14T06:49:51.492Z,7.22
2017-12-14T06:52:20.192Z,7.41
2017-12-14T06:54:49.074Z,7.66
2017-12-14T06:57:18.275Z,7.69
2017-12-14T06:59:47.058Z,7.82
2017-12-14T07:02:15.789Z,8.22
2017-12-14T07:04:45.631Z,8.49
2017-12-14T07:07:14.247Z,8.48
2017-12-14T07:09:42.868Z,8.59
2017-12-14T07:12:12.685Z,8.71
2017-12-14T07:14:42.246Z,8.92
2017-12-14T07:17:11.031Z,9.09
2017-12-14T07:19:40.131Z,9.48
2017-12-14T07:22:09.015Z,9.76
2017-12-14T07:24:37.746Z,9.88
2017-12-14T07:27:07.220Z,10.23
2017-12-14T07:29:35.961Z,10.59
2017-12-14T07:32:04.789Z,10.86
2017-12-14T07:34:33.481Z,11.04
2017-12-14T07:37:02.162Z,11.05
2017-12-14T07:39:30.842Z,11.03
2017-12-14T07:41:59.700Z,11.48
2017-12-14T07:44:29.238Z,11.45
2017-12-14T07:47:15.537Z,11.36
2017-12-14T07:49:44.225Z,11.38
2017-12-14T07:52:13.016Z,11.48
2017-12-14T07:54:42.089Z,10.64
2017-12-14T07:57:10.831Z,10.51
2017-12-14T07:59:40.303Z,11.09
2017-12-14T08:02:09.016Z,11.49
2017-12-14T08:04:37.759Z,11.75
2017-12-14T08:07:06.360Z,12.04
2017-12-14T08:09:35.550Z,12.10
2017-12-14T08:12:04.372Z,11.88
2017-12-14T08:14:33.158Z,12.15
2017-12-14T08:17:02.223Z,12.51
2017-12-14T08:19:30.940Z,12.92
2017-12-14T08:21:59.657Z,12.75
2017-12-14T08:24:28.893Z,12.47
2017-12-14T08:26:57.618Z,13.12
2017-12-14T08:29:26.361Z,13.38
2017-12-14T08:31:55.407Z,13.87
2017-12-14T08:34:24.800Z,14.10
2017-12-14T08:36:54.376Z,14.33
2017-12-14T08:39:23.113Z,14.68
2017-12-14T08:41:51.955Z,14.78
2017-12-14T08:44:20.754Z,14.58
2017-12-14T08:46:49.941Z,14.22
2017-12-14T08:49:18.617Z,14.11
2017-12-14T08:51:47.402Z,13.98
2017-12-14T08:54:16.503Z,14.13
2017-12-14T08:56:45.299Z,14.66
2017-12-14T08:59:13.979Z,14.33
2017-12-14T09:01:42.977Z,14.53
2017-12-14T09:04:11.763Z,14.38
2017-12-14T09:06:40.547Z,14.55
2017-12-14T09:09:09.378Z,14.81
2017-12-14T09:11:38.950Z,15.18
2017-12-14T09:14:08.511Z,15.35
2017-12-14T09:16:38.007Z,15.43
2017-12-14T09:19:07.501Z,15.71
2017-12-14T09:21:37.301Z,15.59
2017-12-14T09:24:05.973Z,16.17
2017-12-14T09:26:34.677Z,16.03
2017-12-14T09:29:03.519Z,16.28
2017-12-14T09:31:32.323Z,16.42
2017-12-14T09:34:01.055Z,16.71
2017-12-14T09:36:30.802Z,17.04
2017-12-14T09:38:59.544Z,17.18
2017-12-14T09:41:29.012Z,16.99
2017-12-14T09:43:57.703Z,17.30
2017-12-14T09:46:27.244Z,17.36
2017-12-14T09:48:56.708Z,17.64
2017-12-14T09:51:25.411Z,17.48
2017-12-14T09:53:54.103Z,17.34
2017-12-14T09:56:22.940Z,17.38
2017-12-14T09:58:51.814Z,16.94
2017-12-14T10:01:20.514Z,16.76
2017-12-14T10:03:49.247Z,16.71
2017-12-14T10:06:18.865Z,17.03
2017-12-14T10:08:48.265Z,17.34
2017-12-14T10:11:17.636Z,17.14
2017-12-14T10:13:46.672Z,16.70
2017-12-14T10:16:15.290Z,16.88
2017-12-14T10:18:44.076Z,17.27
2017-12-14T10:21:12.871Z,17.36
2017-12-14T10:23:41.656Z,17.18
2017-12-14T10:26:10.340Z,17.41
2017-12-14T10:28:39.382Z,17.39
2017-12-14T10:31:08.943Z,17.49
2017-12-14T10:33:37.730Z,16.73
2017-12-14T10:36:06.503Z,16.52
2017-12-14T10:38:35.276Z,16.84
2017-12-14T10:41:04.070Z,16.94
2017-12-14T10:43:33.064Z,16.84
2017-12-14T10:46:01.782Z,16.35
2017-12-14T10:48:30.434Z,16.55
2017-12-14T10:50:59.323Z,16.49
2017-12-14T10:53:28.117Z,16.36
2017-12-14T10:55:56.804Z,16.26
2017-12-14T10:58:25.972Z,16.42
2017-12-14T11:01:00.112Z,16.29
2017-12-14T11:03:28.897Z,16.47
2017-12-14T11:05:57.582Z,16.44
2017-12-14T11:08:26.376Z,16.54
2017-12-14T11:10:55.412Z,16.54
2017-12-14T11:13:24.888Z,16.47
2017-12-14T11:15:55.199Z,16.11
2017-12-14T11:18:23.942Z,15.98
2017-12-14T11:20:52.768Z,16.05
2017-12-14T11:23:21.726Z,16.05
2017-12-14T11:25:50.556Z,16.46
2017-12-14T11:28:19.288Z,16.55
2017-12-14T11:30:48.777Z,16.68
2017-12-14T11:33:17.424Z,16.77
2017-12-14T11:35:46.222Z,16.35
2017-12-14T11:38:15.360Z,16.48
2017-12-14T11:40:44.921Z,16.54
2017-12-14T11:43:13.621Z,16.73
2017-12-14T11:45:43.590Z,16.92
2017-12-14T11:48:12.259Z,17.08
2017-12-14T11:50:40.992Z,17.17
2017-12-14T11:53:09.889Z,17.09
2017-12-14T11:55:38.573Z,17.02
2017-12-14T11:58:07.258Z,16.89
2017-12-14T12:00:36.146Z,16.93
2017-12-14T12:03:04.937Z,17.28
2017-12-14T12:05:33.721Z,17.68
2017-12-14T12:08:02.422Z,17.97
2017-12-14T12:10:31.203Z,18.18
2017-12-14T12:12:59.988Z,18.32
2017-12-14T12:15:28.772Z,18.38
2017-12-14T12:17:57.495Z,17.93
2017-12-14T12:20:27.019Z,17.81
2017-12-14T12:22:55.806Z,17.80
2017-12-14T12:25:25.260Z,17.90
2017-12-14T12:27:53.996Z,17.67
2017-12-14T12:30:23.814Z,17.72
2017-12-14T12:32:52.644Z,17.81
2017-12-14T12:35:21.348Z,18.04
2017-12-14T12:37:50.226Z,17.93
2017-12-14T12:40:18.961Z,18.11
2017-12-14T12:42:48.429Z,18.24
2017-12-14T12:45:17.511Z,18.12
2017-12-14T12:47:46.198Z,18.29
2017-12-14T12:50:14.934Z,17.84
2017-12-14T12:52:44.589Z,17.61
2017-12-14T12:55:13.383Z,17.51
2017-12-14T12:57:42.169Z,17.74
2017-12-14T13:00:11.831Z,18.01
2017-12-14T13:02:40.560Z,18.27
2017-12-14T13:05:09.355Z,18.32
2017-12-14T13:07:38.546Z,18.14
2017-12-14T13:10:07.342Z,18.30
2017-12-14T13:12:36.071Z,18.26
2017-12-14T13:15:05.525Z,18.17
2017-12-14T13:17:34.211Z,18.44
2017-12-14T13:20:02.904Z,18.30
2017-12-14T13:22:31.691Z,18.11
2017-12-14T13:25:00.477Z,18.10
2017-12-14T13:27:29.369Z,17.67
2017-12-14T13:29:58.254Z,17.52
2017-12-14T13:32:27.049Z,17.38
2017-12-14T13:34:55.785Z,17.19
2017-12-14T13:37:25.540Z,16.87
2017-12-14T13:39:54.335Z,16.50
2017-12-14T13:42:23.012Z,16.27
2017-12-14T13:44:51.834Z,16.15
2017-12-14T13:47:21.415Z,16.06
2017-12-14T13:49:50.144Z,15.79
2017-12-14T13:52:19.835Z,15.29
2017-12-14T13:54:48.551Z,15.19
2017-12-14T13:57:18.024Z,15.27
2017-12-14T13:59:46.788Z,15.18
2017-12-14T14:02:15.573Z,15.06
2017-12-14T14:04:44.364Z,14.63
2017-12-14T14:07:13.872Z,14.38
2017-12-14T14:09:44.089Z,14.24
2017-12-14T14:12:12.847Z,14.08
2017-12-14T14:14:41.548Z,13.82
2017-12-14T14:17:10.323Z,13.50
2017-12-14T14:19:39.014Z,13.27
2017-12-14T14:22:07.950Z,13.10
2017-12-14T14:24:37.422Z,12.92
2017-12-14T14:27:06.116Z,12.83
2017-12-14T14:29:34.783Z,12.68
2017-12-14T14:32:03.562Z,12.66
2017-12-14T14:34:32.248Z,12.46
2017-12-14T14:37:00.935Z,12.42
2017-12-14T14:39:30.380Z,12.42
2017-12-14T14:41:59.799Z,12.42
2017-12-14T14:44:28.792Z,12.24
2017-12-14T14:46:57.484Z,11.96
2017-12-14T14:49:26.128Z,11.78
2017-12-14T14:51:55.146Z,11.65
2017-12-14T14:54:24.613Z,11.50
2017-12-14T14:56:53.178Z,11.32
2017-12-14T14:59:22.179Z,11.16
2017-12-14T15:01:50.765Z,11.18
2017-12-14T15:04:19.460Z,11.10
2017-12-14T15:06:48.153Z,10.90
2017-12-14T15:09:16.822Z,10.73
2017-12-14T15:11:45.489Z,10.62
2017-12-14T15:14:14.353Z,10.48
2017-12-14T15:16:43.818Z,10.42
2017-12-14T15:19:12.518Z,10.39
2017-12-14T15:21:41.288Z,10.38
2017-12-14T15:24:09.974Z,10.39
2017-12-14T15:26:38.621Z,10.43
2017-12-14T15:29:07.457Z,10.50
2017-12-14T15:31:36.035Z,10.61
2017-12-14T15:34:04.718Z,10.92
2017-12-14T15:36:33.512Z,10.95
2017-12-14T15:39:02.093Z,11.04
2017-12-14T15:41:30.885Z,11.18
2017-12-14T15:43:59.877Z,11.24
2017-12-14T15:46:28.663Z,11.47
2017-12-14T15:48:57.307Z,11.55
2017-12-14T15:51:26.341Z,11.54
2017-12-14T15:53:54.922Z,11.45
2017-12-14T15:56:23.613Z,11.44
2017-12-14T15:58:53.320Z,11.64
2017-12-14T16:01:21.918Z,11.44
2017-12-14T16:03:50.692Z,11.34
2017-12-14T16:06:19.435Z,11.19
2017-12-14T16:08:48.909Z,11.01
2017-12-14T16:11:17.570Z,10.89
2017-12-14T16:13:46.741Z,10.79
2017-12-14T16:16:15.406Z,10.90
2017-12-14T16:18:44.170Z,11.01
2017-12-14T16:21:13.764Z,11.03
2017-12-14T16:23:43.229Z,10.93
2017-12-14T16:26:11.902Z,11.06
2017-12-14T16:28:41.729Z,11.21
2017-12-14T16:31:10.416Z,11.13
2017-12-14T16:33:39.003Z,11.03
2017-12-14T16:36:07.984Z,10.88
2017-12-14T16:38:36.579Z,10.98
2017-12-14T16:41:05.260Z,10.63
2017-12-14T16:43:34.043Z,10.53
2017-12-14T16:46:02.728Z,10.40
2017-12-14T16:48:31.462Z,10.26
2017-12-14T16:51:01.230Z,10.18
2017-12-14T16:53:29.874Z,10.00
2017-12-14T16:55:58.602Z,9.85
2017-12-14T16:58:28.452Z,9.77
2017-12-14T17:00:57.248Z,9.62
2017-12-14T17:03:25.819Z,9.58
2017-12-14T17:05:54.537Z,9.59
2017-12-14T17:08:23.306Z,9.64
2017-12-14T17:10:52.092Z,9.59
2017-12-14T17:13:21.084Z,9.57
2017-12-14T17:15:49.737Z,9.41
2017-12-14T17:18:18.455Z,9.22
2017-12-14T17:20:47.450Z,9.04
2017-12-14T17:23:16.134Z,8.90
2017-12-14T17:25:44.883Z,9.00
2017-12-14T17:28:13.605Z,9.02
2017-12-14T17:30:42.245Z,8.95
2017-12-14T17:33:10.888Z,8.95
2017-12-14T17:35:39.662Z,9.09
2017-12-14T17:38:08.298Z,9.10
2017-12-14T17:40:37.757Z,9.18
2017-12-14T17:43:06.608Z,9.12
2017-12-14T17:45:35.252Z,9.12
2017-12-14T17:48:03.970Z,9.13
2017-12-14T17:50:32.601Z,9.25
2017-12-14T17:53:01.256Z,9.04
2017-12-14T17:55:29.873Z,8.86
2017-12-14T17:57:58.657Z,8.84
2017-12-14T18:00:27.309Z,8.97
2017-12-14T18:02:56.029Z,8.90
2017-12-14T18:05:24.947Z,8.76
2017-12-14T18:07:53.614Z,8.57
2017-12-14T18:10:22.381Z,8.27
2017-12-14T18:12:51.204Z,8.14
2017-12-14T18:15:19.913Z,8.14
2017-12-14T18:17:49.475Z,7.90
2017-12-14T18:20:18.270Z,7.77
2017-12-14T18:22:46.916Z,7.68
2017-12-14T18:25:16.452Z,7.52
2017-12-14T18:27:46.150Z,7.48
2017-12-14T18:30:14.743Z,7.45
2017-12-14T18:32:43.489Z,7.45
2017-12-14T18:35:13.129Z,7.37
2017-12-14T18:37:41.832Z,7.46
2017-12-14T18:40:10.617Z,7.56
2017-12-14T18:42:39.563Z,7.60
2017-12-14T18:45:09.008Z,7.56
2017-12-14T18:47:37.661Z,7.48
2017-12-14T18:50:06.439Z,7.38
2017-12-14T18:52:35.989Z,7.30
2017-12-14T18:55:05.389Z,7.21
2017-12-14T18:57:34.281Z,7.02
2017-12-14T19:00:03.010Z,6.84
2017-12-14T19:02:32.506Z,6.91
2017-12-14T19:05:03.105Z,6.81
2017-12-14T19:07:31.813Z,6.61
2017-12-14T19:10:00.453Z,6.46
2017-12-14T19:12:29.629Z,6.32
2017-12-14T19:14:59.116Z,6.22
2017-12-14T19:17:28.793Z,6.33
2017-12-14T19:19:57.984Z,6.38
2017-12-14T19:22:26.879Z,6.38
2017-12-14T19:24:55.565Z,6.42
2017-12-14T19:27:24.864Z,6.39
2017-12-14T19:29:53.649Z,6.40
2017-12-14T19:32:22.333Z,6.46
2017-12-14T19:34:51.229Z,6.65
2017-12-14T19:37:19.956Z,6.54
2017-12-14T19:39:49.425Z,6.56
2017-12-14T19:42:18.209Z,6.51
2017-12-14T19:44:47.782Z,6.61
2017-12-14T19:47:16.570Z,6.63
2017-12-14T19:49:45.392Z,6.77
2017-12-14T19:52:14.889Z,6.73
2017-12-14T19:54:43.855Z,6.61
2017-12-14T19:57:12.696Z,6.64
2017-12-14T19:59:42.154Z,6.61
2017-12-14T20:02:10.859Z,6.74
2017-12-14T20:04:40.445Z,6.66
2017-12-14T20:07:09.145Z,6.59
2017-12-14T20:09:37.863Z,6.52
2017-12-14T20:12:07.680Z,6.48
2017-12-14T20:14:37.170Z,6.62
2017-12-14T20:17:06.733Z,6.57
2017-12-14T20:19:35.628Z,6.35
2017-12-14T20:22:04.412Z,6.23
2017-12-14T20:24:32.989Z,6.21
2017-12-14T20:27:02.081Z,6.25
2017-12-14T20:29:30.777Z,6.22
2017-12-14T20:31:59.518Z,6.08
2017-12-14T20:34:29.380Z,6.14
2017-12-14T20:36:58.276Z,6.01
2017-12-14T20:39:26.958Z,6.13
2017-12-14T20:41:55.742Z,6.18
2017-12-14T20:44:24.433Z,6.12
2017-12-14T20:46:53.114Z,6.07
2017-12-14T20:49:22.107Z,6.16
2017-12-14T20:51:50.792Z,6.18
2017-12-14T20:54:19.587Z,6.00
2017-12-14T20:56:48.373Z,5.85
2017-12-14T20:59:17.061Z,5.75
2017-12-14T21:01:45.844Z,5.78
2017-12-14T21:04:14.946Z,5.67
2017-12-14T21:06:43.620Z,5.57
2017-12-14T21:09:12.312Z,5.39
2017-12-14T21:11:41.200Z,5.28
2017-12-14T21:14:09.886Z,5.22
2017-12-14T21:16:38.542Z,5.25
2017-12-14T21:19:07.510Z,5.30
2017-12-14T21:21:36.864Z,5.05
2017-12-14T21:24:05.570Z,5.06
2017-12-14T21:26:34.261Z,4.78
2017-12-14T21:29:02.928Z,4.71
2017-12-14T21:31:31.608Z,4.24
2017-12-14T21:34:00.663Z,4.13
2017-12-14T21:36:30.209Z,4.05
2017-12-14T21:38:58.924Z,4.04
2017-12-14T21:41:28.770Z,4.17
2017-12-14T21:43:57.438Z,4.20
2017-12-14T21:46:26.905Z,4.27
2017-12-14T21:48:55.690Z,4.34
2017-12-14T21:51:24.260Z,4.31
2017-12-14T21:56:21.176Z,4.32
2017-12-14T21:58:50.648Z,4.29
2017-12-14T22:01:19.428Z,4.35
2017-12-14T22:03:48.210Z,4.48
2017-12-14T22:06:17.006Z,4.60
2017-12-14T22:08:45.889Z,4.82
2017-12-14T22:11:14.685Z,4.86
2017-12-14T22:13:43.370Z,5.01
2017-12-14T22:16:11.941Z,5.05
2017-12-14T22:18:40.730Z,5.17
2017-12-14T22:21:09.529Z,5.16
2017-12-14T22:23:38.271Z,5.67
2017-12-14T22:26:07.164Z,5.64
2017-12-14T22:28:35.832Z,5.58
2017-12-14T22:31:05.400Z,5.70
2017-12-14T22:33:34.493Z,5.75
2017-12-14T22:36:03.277Z,5.66
2017-12-14T22:38:32.073Z,5.57
2017-12-14T22:41:01.018Z,5.46
2017-12-14T22:43:30.357Z,5.44
2017-12-14T22:45:59.151Z,5.39
2017-12-14T22:48:28.201Z,5.30
2017-12-14T22:50:56.973Z,5.17
2017-12-14T22:53:26.436Z,5.01
2017-12-14T22:55:55.403Z,4.99
2017-12-14T22:58:24.116Z,4.88
2017-12-14T23:00:52.764Z,4.79
2017-12-14T23:03:21.507Z,4.68
2017-12-14T23:05:50.225Z,4.57
2017-12-14T23:08:18.918Z,4.44
2017-12-14T23:10:47.644Z,4.46
2017-12-14T23:13:16.303Z,4.51
2017-12-14T23:15:45.015Z,4.70
2017-12-14T23:18:13.738Z,4.66
2017-12-14T23:20:42.499Z,4.61
2017-12-14T23:23:11.072Z,4.89
2017-12-14T23:25:39.903Z,4.79
2017-12-14T23:28:09.366Z,4.73
2017-12-14T23:30:38.028Z,4.68
2017-12-14T23:33:06.743Z,4.54
2017-12-14T23:35:35.430Z,4.49
2017-12-14T23:38:04.153Z,4.40
2017-12-14T23:40:33.746Z,4.19
2017-12-14T23:43:02.439Z,4.14
2017-12-14T23:45:31.198Z,4.07
2017-12-14T23:47:59.983Z,3.91
2017-12-14T23:50:28.667Z,3.77
2017-12-14T23:52:57.356Z,3.95
2017-12-14T23:55:26.446Z,3.79
2017-12-14T23:57:55.245Z,3.74
